Cincinnati, Ohio
Traffic Map
Current Weather Conditions
Cincinnati, Ohio
Scattered Clouds
Scattered Clouds
24°
Feels Like: 24°
Wind Chill: 24° Ceiling: Unl
Heat Index: 24° Visibility: 10mi
Dew Point: 21° Wind: 0mph
Humidity: 84% Direction: ° ()
Pressure: 30.06in Gusts: 0mph
Raw Report DataKLUK 302353Z 00000KT 10SM SCT085 24/21 A3006 RMK AO2 SLP174 T02390211 10300 20239 51005
Traffic Incident Summary
Active as of:
Severity:
Category:
InformationThere was an issue retrieving the traffic information for this location. Please try a different location or try again shortly.
Advertisements
Track Severe Weather on mobile